Time;durP1;ratioP1;P1;durP2;ratioP2;P2;SDS_P1;SDS_P2;PMS_P1;PMS_P2;Temp;Humidity;BMP_temperature;BMP_pressure;BME280_temperature;BME280_humidity;BME280_pressure;Samples;Min_cycle;Max_cycle;Signal;HPM_P1;HPM_P2
2023/03/28 00:00:18;;;;;;;3.85;0.50;;;;;;;0.83;97.18;100880.38;5032643;28;20060;-69
2023/03/28 00:02:46;;;;;;;2.75;0.80;;;;;;;0.69;96.63;100874.56;5066754;28;20040;-69
2023/03/28 00:05:13;;;;;;;1.95;0.70;;;;;;;0.67;95.95;100877.16;5065762;28;20045;-69
2023/03/28 00:07:41;;;;;;;1.55;0.50;;;;;;;0.69;95.17;100884.91;5054098;28;20587;-69
2023/03/28 00:10:08;;;;;;;1.55;0.55;;;;;;;0.75;93.76;100880.50;5048957;28;20052;-69
2023/03/28 00:12:36;;;;;;;1.67;0.55;;;;;;;0.70;94.41;100874.53;5051511;28;20147;-70
2023/03/28 00:15:03;;;;;;;2.00;0.75;;;;;;;0.56;94.81;100873.88;5064601;28;20041;-69
2023/03/28 00:17:31;;;;;;;0.98;0.70;;;;;;;0.44;94.86;100858.47;5049418;28;20040;-68
2023/03/28 00:20:01;;;;;;;0.50;0.50;;;;;;;0.54;94.49;100867.88;5047865;28;20111;-69
2023/03/28 00:22:29;;;;;;;1.08;0.63;;;;;;;0.58;93.37;100872.09;5045954;28;20565;-69
2023/03/28 00:24:59;;;;;;;0.68;0.60;;;;;;;0.59;93.26;100876.44;5061104;28;20056;-69
2023/03/28 00:27:26;;;;;;;3.45;0.70;;;;;;;0.60;93.05;100880.72;5062208;28;20060;-70
2023/03/28 00:29:54;;;;;;;1.15;0.60;;;;;;;0.35;93.25;100894.88;5068054;28;20059;-69
2023/03/28 00:32:21;;;;;;;2.75;0.73;;;;;;;0.38;93.08;100898.28;5051599;28;20107;-69
2023/03/28 00:34:48;;;;;;;1.45;0.68;;;;;;;0.45;92.98;100899.94;5064080;28;20135;-70
2023/03/28 00:37:16;;;;;;;3.33;1.13;;;;;;;0.48;93.32;100902.47;5065419;28;20068;-68
2023/03/28 00:39:48;;;;;;;3.58;1.40;;;;;;;0.42;94.78;100909.47;5065724;28;20135;-67
2023/03/28 00:42:17;;;;;;;3.33;1.05;;;;;;;0.60;95.20;100917.00;5050030;28;20052;-69
2023/03/28 00:44:49;;;;;;;1.63;0.93;;;;;;;0.59;95.42;100920.47;5032261;28;20131;-70
2023/03/28 00:47:24;;;;;;;3.13;1.40;;;;;;;0.58;95.86;100910.09;5044694;28;20040;-70
2023/03/28 00:49:55;;;;;;;2.78;0.80;;;;;;;0.62;95.56;100916.97;5047413;28;20044;-69
2023/03/28 00:52:24;;;;;;;2.90;1.00;;;;;;;0.54;96.47;100923.97;5031248;28;20076;-69
2023/03/28 00:54:52;;;;;;;3.30;0.95;;;;;;;0.64;95.50;100921.25;5047791;28;20140;-70
2023/03/28 00:57:19;;;;;;;2.63;0.93;;;;;;;0.58;95.50;100931.69;5066597;28;20137;-70
2023/03/28 00:59:47;;;;;;;3.70;1.15;;;;;;;0.61;95.13;100930.78;5064110;28;20048;-68
2023/03/28 01:02:14;;;;;;;7.63;1.00;;;;;;;0.60;94.56;100923.91;5063722;28;20186;-69
2023/03/28 01:04:58;;;;;;;9.10;1.38;;;;;;;0.62;94.23;100937.69;5044538;28;20066;-69
2023/03/28 01:07:30;;;;;;;3.60;1.20;;;;;;;0.63;92.89;100931.63;5046945;28;20159;-69
2023/03/28 01:09:57;;;;;;;2.88;0.90;;;;;;;0.64;93.04;100938.53;5063519;28;20631;-70
2023/03/28 01:12:24;;;;;;;4.05;1.00;;;;;;;0.65;93.01;100943.69;5048865;28;20469;-69
2023/03/28 01:14:52;;;;;;;4.32;0.90;;;;;;;0.67;92.64;100941.91;5065181;28;20068;-70
2023/03/28 01:17:20;;;;;;;3.33;1.30;;;;;;;0.63;92.52;100932.50;5066873;28;20155;-69
2023/03/28 01:19:57;;;;;;;5.25;1.33;;;;;;;0.60;92.28;100952.41;5037958;28;20070;-69
2023/03/28 01:22:46;;;;;;;8.38;1.40;;;;;;;0.55;91.79;100949.88;5046986;28;20504;-69
2023/03/28 01:25:46;;;;;;;1.65;1.02;;;;;;;0.56;92.16;100943.81;5059948;28;20053;-69
2023/03/28 01:28:42;;;;;;;1.90;0.93;;;;;;;0.56;91.79;100961.09;5032837;28;20041;-69
2023/03/28 01:31:20;;;;;;;9.23;1.48;;;;;;;0.46;91.85;100976.75;5043369;28;20050;-69
2023/03/28 01:33:56;;;;;;;1.30;0.57;;;;;;;0.54;91.84;100976.66;5044408;28;20044;-69
2023/03/28 01:36:45;;;;;;;3.53;0.77;;;;;;;0.61;91.11;100974.84;5047379;28;20048;-69
2023/03/28 01:39:22;;;;;;;2.42;0.90;;;;;;;0.60;91.37;100978.31;5061886;28;20052;-70
2023/03/28 01:41:55;;;;;;;3.97;1.10;;;;;;;0.64;91.26;100990.34;5049075;28;20225;-70
2023/03/28 01:44:48;;;;;;;6.90;1.63;;;;;;;0.72;90.69;100978.13;5051137;28;20090;-70
2023/03/28 01:47:31;;;;;;;3.08;1.13;;;;;;;0.65;90.83;100990.31;5065706;28;20139;-70
2023/03/28 01:50:18;;;;;;;4.70;0.70;;;;;;;0.70;91.20;100992.88;5064474;28;20049;-69
2023/03/28 01:52:45;;;;;;;2.88;1.23;;;;;;;0.75;90.98;100994.50;5065821;28;20067;-69
2023/03/28 01:55:38;;;;;;;3.28;1.00;;;;;;;0.80;90.88;100996.19;5066749;28;20052;-68
2023/03/28 01:58:31;;;;;;;4.80;1.27;;;;;;;0.75;91.60;101006.63;5043734;28;20067;-68
2023/03/28 02:01:04;;;;;;;5.63;1.08;;;;;;;0.86;91.91;101004.75;5064740;28;20413;-69
2023/03/28 02:03:34;;;;;;;3.22;0.93;;;;;;;0.84;94.94;101018.59;5031505;28;20057;-70
2023/03/28 02:06:05;;;;;;;7.03;1.20;;;;;;;0.79;96.79;101017.81;5044212;28;20044;-67
2023/03/28 02:08:35;;;;;;;5.60;1.00;;;;;;;0.68;98.30;101015.34;5046399;28;20052;-69
2023/03/28 02:11:52;;;;;;;8.05;1.55;;;;;;;0.57;99.28;101022.38;5031295;28;20138;-69
2023/03/28 02:14:45;;;;;;;1.75;0.90;;;;;;;0.44;98.53;101022.50;5050466;28;20106;-68
2023/03/28 02:17:14;;;;;;;4.60;0.85;;;;;;;0.39;99.05;101031.22;5049222;28;20078;-69
2023/03/28 02:19:47;;;;;;;8.10;2.10;;;;;;;0.34;99.47;101026.09;5041602;28;20068;-68
2023/03/28 02:22:25;;;;;;;3.75;1.10;;;;;;;0.44;99.71;101032.00;5049062;28;20051;-69
2023/03/28 02:24:53;;;;;;;5.85;0.90;;;;;;;0.36;100.00;101026.94;5045544;28;20060;-69
2023/03/28 02:27:21;;;;;;;4.30;1.23;;;;;;;0.35;100.00;101034.72;5044478;28;20064;-70
2023/03/28 02:29:48;;;;;;;3.60;1.15;;;;;;;0.33;100.00;101032.13;5044207;28;20052;-70
2023/03/28 02:32:16;;;;;;;3.40;1.10;;;;;;;0.33;100.00;101033.88;5061711;28;20060;-69
2023/03/28 02:34:45;;;;;;;3.25;1.08;;;;;;;0.42;100.00;101037.22;5043347;28;20044;-69
2023/03/28 02:37:12;;;;;;;3.08;1.45;;;;;;;0.41;99.90;101032.94;5063156;28;20131;-69
2023/03/28 02:40:01;;;;;;;5.82;1.30;;;;;;;0.38;99.72;101037.28;5065065;28;20063;-70
2023/03/28 02:42:42;;;;;;;3.05;1.20;;;;;;;0.38;99.08;101030.34;5061216;28;20053;-70
2023/03/28 02:45:33;;;;;;;2.90;1.00;;;;;;;0.32;98.40;101033.03;5063989;28;20518;-69
2023/03/28 02:48:09;;;;;;;7.38;1.30;;;;;;;0.35;97.55;101045.91;5060106;28;20071;-70
2023/03/28 02:51:02;;;;;;;1.67;0.75;;;;;;;0.30;97.42;101039.94;5043773;28;20056;-69
2023/03/28 02:53:55;;;;;;;2.00;0.95;;;;;;;0.28;96.87;101051.19;5063101;28;20075;-68
2023/03/28 02:56:41;;;;;;;2.72;0.98;;;;;;;0.38;96.21;101055.41;5016190;28;20132;-70
2023/03/28 02:59:17;;;;;;;4.72;1.38;;;;;;;0.38;95.39;101056.25;5062834;28;20520;-68
2023/03/28 03:01:45;;;;;;;3.13;1.20;;;;;;;0.30;94.80;101054.63;5052025;28;20637;-69
2023/03/28 03:04:16;;;;;;;4.50;1.10;;;;;;;0.34;94.89;101059.75;5030123;28;20049;-70
2023/03/28 03:06:47;;;;;;;2.75;1.30;;;;;;;0.50;94.64;101070.81;5067569;28;20559;-69
2023/03/28 03:09:15;;;;;;;5.05;1.25;;;;;;;0.56;93.95;101067.31;5045397;28;20064;-69
2023/03/28 03:11:42;;;;;;;3.33;1.00;;;;;;;0.63;92.97;101080.19;5066371;28;20072;-69
2023/03/28 03:14:10;;;;;;;3.42;1.00;;;;;;;0.76;91.23;101078.28;5064996;28;20049;-70
2023/03/28 03:16:38;;;;;;;4.55;1.20;;;;;;;0.65;90.82;101085.34;5046683;28;20069;-69
2023/03/28 03:19:06;;;;;;;3.15;1.17;;;;;;;0.60;90.62;101087.13;5031722;28;20148;-70
2023/03/28 03:21:35;;;;;;;3.13;1.13;;;;;;;0.62;90.87;101091.41;5048471;28;20060;-70
2023/03/28 03:24:03;;;;;;;4.38;1.20;;;;;;;0.63;90.48;101087.06;5063124;28;20028;-70
2023/03/28 03:26:30;;;;;;;3.67;1.30;;;;;;;0.65;89.66;101100.88;5062756;28;20055;-69
2023/03/28 03:28:59;;;;;;;5.53;1.27;;;;;;;0.64;89.73;101096.59;5062740;28;20128;-71
2023/03/28 03:31:26;;;;;;;3.90;1.05;;;;;;;0.65;90.07;101100.88;5047165;28;20071;-69
2023/03/28 03:33:54;;;;;;;3.70;1.40;;;;;;;0.55;90.97;101096.69;5050570;28;20064;-69
2023/03/28 03:36:21;;;;;;;5.88;1.50;;;;;;;0.61;91.34;101102.66;5063887;28;20052;-68
2023/03/28 03:38:48;;;;;;;8.07;1.70;;;;;;;0.62;91.94;101111.28;5033455;28;20412;-69
2023/03/28 03:41:15;;;;;;;4.57;1.60;;;;;;;0.64;92.36;101117.31;5062256;28;20519;-70
2023/03/28 03:43:42;;;;;;;5.38;1.20;;;;;;;0.59;92.53;101121.69;5066672;28;20040;-69
2023/03/28 03:46:13;;;;;;;4.03;1.38;;;;;;;0.39;93.80;101122.72;5050677;28;20152;-70
2023/03/28 03:48:40;;;;;;;5.45;1.70;;;;;;;0.45;94.22;101132.16;5050328;28;20048;-69
2023/03/28 03:51:16;;;;;;;3.95;1.60;;;;;;;0.34;95.02;101129.66;5050558;28;20131;-69
2023/03/28 03:53:43;;;;;;;6.72;1.48;;;;;;;0.32;95.55;101135.75;5047443;28;20469;-69
2023/03/28 03:56:11;;;;;;;4.50;2.15;;;;;;;0.44;95.88;101144.25;5048667;28;20060;-70
2023/03/28 03:58:38;;;;;;;10.73;1.83;;;;;;;0.47;95.82;101143.38;5033321;28;20052;-69
2023/03/28 04:01:08;;;;;;;9.15;1.95;;;;;;;0.41;96.24;101149.47;5044558;28;20292;-71
2023/03/28 04:03:36;;;;;;;5.15;1.48;;;;;;;0.39;96.37;101138.25;5055050;28;20059;-69
2023/03/28 04:06:04;;;;;;;9.68;1.55;;;;;;;0.34;97.02;101142.63;5054616;28;20071;-69
2023/03/28 04:08:32;;;;;;;12.18;1.85;;;;;;;0.25;97.39;101142.69;5048718;28;20060;-69
2023/03/28 04:10:59;;;;;;;7.57;1.70;;;;;;;0.25;97.41;101151.31;5063324;28;20045;-70
2023/03/28 04:13:26;;;;;;;6.88;1.90;;;;;;;0.42;97.43;101156.38;5031762;28;20140;-70
2023/03/28 04:15:53;;;;;;;4.28;1.40;;;;;;;0.40;96.87;101155.50;5062653;28;20055;-70
2023/03/28 04:18:21;;;;;;;6.03;1.70;;;;;;;0.36;97.59;101165.91;5064584;28;20422;-70
2023/03/28 04:20:54;;;;;;;9.55;1.50;;;;;;;0.40;96.76;101162.41;5029147;28;20079;-69
2023/03/28 04:23:24;;;;;;;4.53;1.67;;;;;;;0.29;96.43;101179.78;5065129;28;20048;-70
2023/03/28 04:25:56;;;;;;;6.95;1.50;;;;;;;0.23;96.63;101181.56;5032148;28;20044;-69
2023/03/28 04:28:24;;;;;;;8.35;2.08;;;;;;;0.21;97.18;101183.28;5061372;28;20036;-70
2023/03/28 04:30:53;;;;;;;6.72;2.15;;;;;;;0.21;96.81;101187.59;5052145;22;20094;-68
2023/03/28 04:33:24;;;;;;;8.15;2.45;;;;;;;0.19;97.15;101195.41;5025931;28;20064;-69
2023/03/28 04:35:59;;;;;;;7.53;2.05;;;;;;;0.21;96.57;101193.66;5026764;28;20058;-69
2023/03/28 04:38:28;;;;;;;9.75;1.40;;;;;;;0.12;97.05;101201.47;5025544;28;20049;-70
2023/03/28 04:40:58;;;;;;;5.57;1.60;;;;;;;-0.01;97.32;101208.47;5016505;28;20040;-68
2023/03/28 04:43:26;;;;;;;7.30;1.73;;;;;;;0.06;98.72;101218.78;5044901;28;20722;-69
2023/03/28 04:45:54;;;;;;;6.97;2.17;;;;;;;0.06;98.51;101217.06;5031399;28;20037;-68
2023/03/28 04:48:22;;;;;;;8.98;2.30;;;;;;;0.10;98.60;101223.94;5029613;28;20068;-69
2023/03/28 04:50:50;;;;;;;7.55;2.10;;;;;;;0.07;98.90;101223.94;5044812;28;20695;-68
2023/03/28 04:53:17;;;;;;;10.55;2.58;;;;;;;0.15;98.61;101236.84;5010248;28;20065;-70
2023/03/28 04:55:49;;;;;;;7.35;1.90;;;;;;;0.19;98.00;101238.56;5046953;28;20055;-68
2023/03/28 04:58:18;;;;;;;5.55;1.80;;;;;;;0.17;97.97;101237.69;4993021;28;20059;-70
2023/03/28 05:00:45;;;;;;;6.85;2.42;;;;;;;0.19;98.25;101254.09;5024972;28;20153;-70
2023/03/28 05:03:17;;;;;;;5.38;1.50;;;;;;;0.23;97.31;101250.63;5042700;28;20532;-69
2023/03/28 05:05:46;;;;;;;10.77;2.50;;;;;;;0.26;98.32;101253.16;5029082;28;20160;-69
2023/03/28 05:08:15;;;;;;;10.88;1.98;;;;;;;0.27;97.23;101259.19;5007499;28;20151;-68
2023/03/28 05:10:44;;;;;;;4.57;1.58;;;;;;;0.15;97.10;101273.09;5040959;28;20993;-69
2023/03/28 05:13:12;;;;;;;7.50;1.98;;;;;;;0.20;97.84;101267.00;5018541;28;20186;-68
2023/03/28 05:15:41;;;;;;;5.00;1.77;;;;;;;0.19;97.37;101270.47;4997437;28;20049;-69
2023/03/28 05:18:10;;;;;;;6.35;1.92;;;;;;;0.24;97.70;101275.63;5010305;28;20062;-68
2023/03/28 05:20:38;;;;;;;4.95;1.55;;;;;;;0.34;97.00;101281.63;5028759;28;20677;-69
2023/03/28 05:23:06;;;;;;;12.88;2.10;;;;;;;0.40;96.09;101282.41;5039076;28;20060;-68
2023/03/28 05:25:33;;;;;;;3.92;1.60;;;;;;;0.32;95.42;101291.13;5034549;28;20055;-69
2023/03/28 05:28:00;;;;;;;5.70;1.40;;;;;;;0.23;96.28;101281.69;5043998;28;20060;-68
2023/03/28 05:30:28;;;;;;;8.75;1.70;;;;;;;0.21;96.98;101279.09;5022537;28;20060;-69
2023/03/28 05:32:55;;;;;;;5.55;1.73;;;;;;;0.28;96.18;101290.28;5037761;28;20577;-67
2023/03/28 05:35:22;;;;;;;5.18;1.70;;;;;;;0.20;96.10;101299.81;4997946;28;20085;-68
2023/03/28 05:37:50;;;;;;;4.30;1.50;;;;;;;0.23;96.94;101299.81;5033345;28;20045;-69
2023/03/28 05:40:17;;;;;;;5.57;1.67;;;;;;;0.23;96.87;101305.00;5029697;28;20143;-68
2023/03/28 05:42:45;;;;;;;5.72;1.58;;;;;;;0.16;96.69;101304.16;5051501;28;20047;-69
2023/03/28 05:45:12;;;;;;;5.03;1.55;;;;;;;0.09;96.45;101306.78;5015327;28;20160;-69
2023/03/28 05:47:40;;;;;;;7.50;1.98;;;;;;;0.20;95.23;101321.41;5036422;28;20341;-69
2023/03/28 05:50:08;;;;;;;4.95;1.80;;;;;;;0.18;95.60;101314.50;5028755;28;20071;-69
2023/03/28 05:52:35;;;;;;;6.10;1.70;;;;;;;0.07;95.17;101324.06;5028475;28;20064;-69
2023/03/28 05:55:03;;;;;;;8.35;1.80;;;;;;;0.18;93.37;101330.91;5045796;28;20045;-72
2023/03/28 05:57:30;;;;;;;5.25;2.22;;;;;;;0.20;93.40;101330.91;5008669;28;20462;-68
2023/03/28 05:59:58;;;;;;;2.83;1.30;;;;;;;0.16;92.71;101332.63;5030058;28;20047;-69
2023/03/28 06:02:25;;;;;;;3.47;1.30;;;;;;;0.15;92.88;101337.81;5046016;28;20049;-69
2023/03/28 06:04:53;;;;;;;8.30;1.73;;;;;;;0.23;92.87;101346.44;5017184;28;20545;-68
2023/03/28 06:07:20;;;;;;;6.65;1.70;;;;;;;0.27;92.42;101348.13;5046638;28;20048;-67
2023/03/28 06:10:09;;;;;;;5.45;1.50;;;;;;;0.24;92.70;101351.59;5039221;28;20061;-69
2023/03/28 06:12:36;;;;;;;8.68;1.77;;;;;;;0.20;93.39;101357.66;5028053;28;20223;-68
2023/03/28 06:15:04;;;;;;;5.95;1.48;;;;;;;0.29;93.02;101361.06;5038553;28;20053;-68
2023/03/28 06:17:32;;;;;;;4.18;1.52;;;;;;;0.23;92.99;101359.38;5026450;28;20059;-69
2023/03/28 06:19:59;;;;;;;4.55;1.70;;;;;;;0.31;93.20;101361.91;5029664;28;20041;-70
2023/03/28 06:22:26;;;;;;;4.88;1.58;;;;;;;0.27;93.41;101366.25;5028248;28;20405;-68
2023/03/28 06:24:54;;;;;;;4.60;2.08;;;;;;;0.36;92.13;101373.09;5007965;28;20045;-67
2023/03/28 06:27:21;;;;;;;4.53;2.08;;;;;;;0.42;92.23;101375.69;5011335;28;20049;-68
2023/03/28 06:29:48;;;;;;;10.30;2.20;;;;;;;0.42;91.96;101371.34;5027294;28;20059;-68
2023/03/28 06:32:17;;;;;;;11.23;2.15;;;;;;;0.46;91.51;101383.41;5043685;28;20148;-67
2023/03/28 06:34:44;;;;;;;4.35;1.75;;;;;;;0.48;90.82;101373.91;5033723;28;20041;-68
2023/03/28 06:37:11;;;;;;;6.55;2.17;;;;;;;0.46;90.08;101375.66;5045206;28;20045;-69
2023/03/28 06:39:38;;;;;;;6.22;1.90;;;;;;;0.45;90.13;101388.59;5044523;28;20049;-70
2023/03/28 06:42:05;;;;;;;3.58;1.65;;;;;;;0.44;89.90;101387.72;5047165;28;20412;-69
2023/03/28 06:44:33;;;;;;;3.33;1.83;;;;;;;0.48;89.47;101386.84;5042711;28;20401;-69
2023/03/28 06:47:01;;;;;;;6.47;2.00;;;;;;;0.50;89.15;101387.72;5014979;28;20041;-69
2023/03/28 06:49:28;;;;;;;5.50;1.80;;;;;;;0.64;88.59;101391.97;5046701;28;20066;-69
2023/03/28 06:51:55;;;;;;;2.95;1.45;;;;;;;0.64;88.02;101399.75;5041490;28;20496;-69
2023/03/28 06:54:23;;;;;;;4.20;1.33;;;;;;;0.65;87.24;101401.44;5045757;28;20064;-69
2023/03/28 06:56:50;;;;;;;5.35;1.65;;;;;;;0.66;87.44;101403.16;5041060;28;20387;-71
2023/03/28 06:59:17;;;;;;;6.28;1.67;;;;;;;0.71;86.89;101409.19;5039936;28;20059;-68
2023/03/28 07:01:44;;;;;;;7.28;1.73;;;;;;;0.66;86.29;101408.34;5047984;28;20074;-69
2023/03/28 07:04:11;;;;;;;10.85;1.80;;;;;;;0.65;86.27;101404.03;5028925;28;20416;-69
2023/03/28 07:06:40;;;;;;;9.70;1.95;;;;;;;0.86;85.87;101408.25;5042981;28;20044;-69
2023/03/28 07:09:07;;;;;;;4.88;1.27;;;;;;;0.99;84.31;101421.13;5049790;28;20118;-68
2023/03/28 07:11:34;;;;;;;4.10;1.52;;;;;;;0.94;83.41;101419.41;5041711;28;20053;-69
2023/03/28 07:14:01;;;;;;;6.38;1.70;;;;;;;0.92;83.49;101427.19;5049928;28;20056;-69
2023/03/28 07:16:28;;;;;;;6.20;1.73;;;;;;;0.98;82.49;101426.28;5039631;28;20060;-69
2023/03/28 07:18:56;;;;;;;5.03;1.40;;;;;;;1.04;83.07;101427.97;5028006;28;20136;-69
2023/03/28 07:21:23;;;;;;;5.88;1.77;;;;;;;1.08;83.12;101435.75;5031606;28;20615;-69
2023/03/28 07:23:50;;;;;;;6.55;1.70;;;;;;;1.14;83.37;101434.84;5031746;28;20061;-70
2023/03/28 07:26:17;;;;;;;2.30;1.55;;;;;;;1.21;81.02;101436.50;5041678;28;20354;-69
2023/03/28 07:28:45;;;;;;;4.63;1.30;;;;;;;1.28;80.10;101435.59;5049872;28;20049;-69
2023/03/28 07:31:12;;;;;;;4.68;1.40;;;;;;;1.21;79.75;101429.56;5047983;28;20146;-68
2023/03/28 07:33:39;;;;;;;5.25;1.42;;;;;;;1.32;79.37;101442.47;5049163;28;20069;-68
2023/03/28 07:36:12;;;;;;;5.80;1.70;;;;;;;1.42;80.09;101441.53;5033580;28;20049;-68
2023/03/28 07:38:39;;;;;;;6.70;1.60;;;;;;;1.52;78.84;101444.91;5029612;28;20053;-68
2023/03/28 07:41:07;;;;;;;7.28;1.83;;;;;;;1.48;78.18;101454.44;5029158;28;20136;-68
2023/03/28 07:43:37;;;;;;;4.40;1.63;;;;;;;1.60;77.52;101450.91;5047694;28;20090;-68
2023/03/28 07:46:10;;;;;;;7.47;1.83;;;;;;;1.59;78.35;101464.75;5033619;28;20472;-68
2023/03/28 07:48:37;;;;;;;9.25;1.88;;;;;;;1.73;77.05;101456.84;5046803;28;20046;-68
2023/03/28 07:51:05;;;;;;;3.92;1.10;;;;;;;1.73;75.55;101462.88;5033112;28;20063;-69
2023/03/28 07:53:33;;;;;;;8.50;1.88;;;;;;;1.89;75.36;101461.03;5033725;28;20495;-69
2023/03/28 07:56:00;;;;;;;4.78;1.40;;;;;;;1.94;72.99;101476.56;5029338;28;20059;-70
2023/03/28 07:58:28;;;;;;;6.85;1.13;;;;;;;1.93;70.34;101467.03;5031061;28;20059;-69
2023/03/28 08:00:55;;;;;;;2.97;1.27;;;;;;;1.84;69.64;101465.38;5028632;28;20585;-69
2023/03/28 08:03:22;;;;;;;3.90;1.17;;;;;;;1.89;70.97;101476.59;5049081;28;20045;-71
2023/03/28 08:05:52;;;;;;;7.10;1.38;;;;;;;1.95;69.36;101475.69;5049102;28;20136;-70
2023/03/28 08:08:20;;;;;;;4.50;1.23;;;;;;;2.01;67.28;101476.47;5051655;28;20061;-69
2023/03/28 08:10:50;;;;;;;2.58;1.02;;;;;;;2.09;67.12;101476.41;5031068;28;20543;-69
2023/03/28 08:13:19;;;;;;;3.33;1.27;;;;;;;2.14;67.96;101482.41;5048525;28;20424;-69
2023/03/28 08:15:54;;;;;;;3.08;1.10;;;;;;;2.23;67.64;101486.63;5050820;28;20047;-72
2023/03/28 08:18:23;;;;;;;4.20;1.05;;;;;;;2.40;66.50;101478.66;5030463;28;20417;-69
2023/03/28 08:20:57;;;;;;;4.15;1.20;;;;;;;2.46;65.87;101483.78;5031210;28;20059;-68
2023/03/28 08:23:25;;;;;;;2.30;0.88;;;;;;;2.55;64.33;101483.66;5024462;28;20079;-69
2023/03/28 08:26:04;;;;;;;4.05;1.00;;;;;;;2.49;60.55;101483.75;5028257;28;20044;-68
2023/03/28 08:28:33;;;;;;;5.00;1.20;;;;;;;2.56;61.59;101506.19;5034223;28;20053;-69
2023/03/28 08:31:01;;;;;;;4.00;1.10;;;;;;;2.57;61.18;101497.53;5025849;28;20057;-69
2023/03/28 08:33:31;;;;;;;4.22;0.88;;;;;;;2.68;60.48;101485.25;5035870;28;20075;-69
2023/03/28 08:35:58;;;;;;;5.65;1.10;;;;;;;2.74;59.65;101489.50;5050819;28;20137;-69
2023/03/28 08:38:26;;;;;;;1.75;0.70;;;;;;;2.74;59.77;101505.09;5041700;28;20148;-69
2023/03/28 08:41:06;;;;;;;1.20;0.70;;;;;;;2.72;59.11;101499.06;5034689;28;20504;-68
2023/03/28 08:43:42;;;;;;;5.68;1.20;;;;;;;2.84;58.11;101513.63;5029042;28;20107;-68
2023/03/28 08:46:12;;;;;;;1.85;0.90;;;;;;;2.92;57.13;101498.78;5049702;28;20428;-69
2023/03/28 08:48:43;;;;;;;2.30;0.85;;;;;;;2.93;56.76;101509.19;5034371;28;20052;-71
2023/03/28 08:51:27;;;;;;;4.13;0.95;;;;;;;3.02;54.43;101509.06;5032007;28;20079;-68
2023/03/28 08:54:13;;;;;;;6.45;0.90;;;;;;;3.00;54.94;101509.97;5026093;28;20533;-68
2023/03/28 08:56:47;;;;;;;3.30;0.80;;;;;;;3.17;52.96;101518.41;5013884;28;20068;-68
2023/03/28 08:59:16;;;;;;;2.15;0.77;;;;;;;3.26;53.59;101535.63;5027948;28;20118;-68
2023/03/28 09:01:43;;;;;;;5.45;1.00;;;;;;;3.32;55.68;101525.13;5025446;28;20055;-68
2023/03/28 09:04:33;;;;;;;3.78;1.10;;;;;;;3.34;55.40;101528.56;5045000;28;20056;-68
2023/03/28 09:07:15;;;;;;;1.77;0.80;;;;;;;3.46;56.11;101528.38;5026839;28;20053;-69
2023/03/28 09:10:07;;;;;;;2.47;0.93;;;;;;;3.68;57.20;101547.13;5025692;28;20552;-69
2023/03/28 09:12:43;;;;;;;2.78;0.90;;;;;;;3.71;55.81;101546.22;5039277;28;20041;-68
2023/03/28 09:15:19;;;;;;;;;;;;;;;3.60;50.81;101562.00;5045307;28;20055;-69
2023/03/28 09:18:05;;;;;;;2.25;1.00;;;;;;;3.44;52.58;101545.78;5047396;28;19952;-68
2023/03/28 09:20:40;;;;;;;3.95;0.80;;;;;;;3.54;51.60;101544.75;5046021;28;20055;-68
2023/03/28 09:23:27;;;;;;;2.47;0.95;;;;;;;3.63;51.13;101550.69;5038584;28;20053;-67
2023/03/28 09:26:19;;;;;;;4.50;1.30;;;;;;;3.68;50.90;101564.50;5038287;28;20408;-67
2023/03/28 09:29:04;;;;;;;3.17;0.85;;;;;;;3.63;50.71;101555.91;5026004;28;20063;-68
2023/03/28 09:31:37;;;;;;;2.72;0.70;;;;;;;3.54;49.60;101551.69;5025569;28;20050;-67
2023/03/28 09:34:05;;;;;;;4.40;1.13;;;;;;;3.44;50.11;101557.94;5019807;28;20064;-67
2023/03/28 09:36:36;;;;;;;2.00;0.75;;;;;;;3.35;50.80;101555.47;5021571;28;20065;-67
2023/03/28 09:39:27;;;;;;;1.65;0.82;;;;;;;3.33;51.10;101580.63;5023490;28;20051;-67
2023/03/28 09:42:13;;;;;;;3.17;0.98;;;;;;;3.39;51.62;101562.34;5040753;28;20133;-67
2023/03/28 09:44:50;;;;;;;4.13;0.80;;;;;;;3.55;50.40;101562.06;5046332;28;20053;-67
2023/03/28 09:47:21;;;;;;;2.90;0.80;;;;;;;3.67;51.03;101573.19;5026823;28;20593;-67
2023/03/28 09:49:48;;;;;;;3.53;0.93;;;;;;;3.65;50.39;101574.94;5043921;28;20049;-67
2023/03/28 09:52:30;;;;;;;6.07;1.00;;;;;;;3.71;50.07;101580.09;5028586;28;20056;-68
2023/03/28 09:54:59;;;;;;;4.45;0.88;;;;;;;3.84;49.76;101585.97;5028877;28;20048;-66
2023/03/28 09:57:26;;;;;;;3.35;1.33;;;;;;;3.87;49.98;101594.56;5004306;28;20073;-66
2023/03/28 09:59:57;;;;;;;3.58;0.80;;;;;;;3.81;50.24;101584.25;5048020;28;20070;-66
2023/03/28 10:02:31;;;;;;;4.07;1.17;;;;;;;3.79;50.49;101586.91;5043736;28;20450;-68
2023/03/28 10:04:58;;;;;;;6.78;1.10;;;;;;;3.76;49.99;101583.47;5044950;28;20065;-67
2023/03/28 10:07:32;;;;;;;1.85;1.05;;;;;;;4.03;50.71;101582.19;5026346;28;20049;-67
2023/03/28 10:10:09;;;;;;;2.90;1.20;;;;;;;4.12;50.81;101584.63;5032424;28;20041;-66
2023/03/28 10:12:37;;;;;;;4.53;0.95;;;;;;;4.04;51.74;101568.25;5048038;28;20115;-67
2023/03/28 10:15:07;;;;;;;3.45;1.08;;;;;;;4.18;50.46;101581.06;5027920;28;20060;-67
2023/03/28 10:17:36;;;;;;;1.65;1.02;;;;;;;4.23;49.49;101587.03;5028623;28;20045;-67
2023/03/28 10:20:14;;;;;;;3.42;0.88;;;;;;;4.17;50.48;101584.56;5012565;28;20049;-66
2023/03/28 10:22:43;;;;;;;2.72;1.30;;;;;;;4.32;50.21;101579.94;5023562;28;20236;-66
2023/03/28 10:25:16;;;;;;;4.47;1.33;;;;;;;4.21;49.96;101571.44;5032016;28;20040;-66
2023/03/28 10:27:43;;;;;;;2.00;0.88;;;;;;;4.21;49.23;101583.63;5027354;28;20043;-66
2023/03/28 10:30:14;;;;;;;3.03;1.00;;;;;;;4.39;50.35;101575.47;5042805;28;20041;-66
2023/03/28 10:32:42;;;;;;;1.27;0.80;;;;;;;4.54;49.64;101584.75;5034525;28;20140;-66
2023/03/28 10:35:22;;;;;;;3.05;0.80;;;;;;;4.58;49.51;101599.44;5040459;28;20132;-66
2023/03/28 10:37:55;;;;;;;1.80;0.90;;;;;;;4.64;48.20;101596.75;5045630;28;20040;-66
2023/03/28 10:40:26;;;;;;;3.13;0.88;;;;;;;4.57;47.98;101595.97;5028094;28;20136;-66
2023/03/28 10:42:55;;;;;;;1.13;0.80;;;;;;;4.74;48.14;101587.84;5049819;28;20113;-66
2023/03/28 10:45:31;;;;;;;3.72;1.27;;;;;;;4.80;49.11;101579.03;5032968;28;20057;-66
2023/03/28 10:48:00;;;;;;;1.75;1.00;;;;;;;4.86;49.18;101589.34;5030171;28;20053;-66
2023/03/28 10:50:35;;;;;;;2.67;1.10;;;;;;;5.03;47.47;101592.47;5031158;28;20057;-66
2023/03/28 10:53:12;;;;;;;0.90;0.70;;;;;;;5.15;46.73;101587.91;5049755;28;20353;-66
2023/03/28 10:55:55;;;;;;;13.50;1.20;;;;;;;5.02;46.54;101588.16;5030555;28;20045;-66
2023/03/28 10:58:30;;;;;;;;;;;;;;;5.15;47.01;101588.75;5043382;28;20052;-68
2023/03/28 11:01:04;;;;;;;1.50;0.70;;;;;;;5.27;47.92;101592.88;5033122;28;19921;-67
2023/03/28 11:03:49;;;;;;;1.80;0.88;;;;;;;5.01;45.58;101602.09;5030413;28;20060;-67
2023/03/28 11:06:21;;;;;;;1.80;0.70;;;;;;;5.02;46.16;101598.59;5047398;28;20049;-67
2023/03/28 11:09:02;;;;;;;1.48;0.82;;;;;;;5.44;46.93;101601.16;5031495;28;20044;-68
2023/03/28 11:11:29;;;;;;;2.60;0.82;;;;;;;5.56;45.82;101610.50;5041832;28;20288;-67
2023/03/28 11:14:30;;;;;;;1.20;0.75;;;;;;;5.42;44.44;101613.41;5032999;28;20041;-67
2023/03/28 11:17:06;;;;;;;1.63;0.80;;;;;;;5.11;44.98;101609.75;5021835;28;20121;-67
2023/03/28 11:19:50;;;;;;;2.65;0.80;;;;;;;5.11;45.56;101612.34;5035471;28;20072;-68
2023/03/28 11:22:36;;;;;;;4.43;1.33;;;;;;;5.28;45.82;101605.88;5048410;28;20389;-67
2023/03/28 11:25:18;;;;;;;2.20;0.80;;;;;;;5.57;45.32;101628.75;5050834;28;20057;-67
2023/03/28 11:27:57;;;;;;;0.68;0.52;;;;;;;5.82;43.17;101602.06;5045434;28;20040;-67
2023/03/28 11:30:31;;;;;;;1.25;0.60;;;;;;;6.01;42.60;101606.00;5055052;28;20053;-67
2023/03/28 11:33:10;;;;;;;1.45;0.77;;;;;;;6.07;42.71;101613.66;5050520;28;20059;-66
2023/03/28 11:35:47;;;;;;;2.53;0.98;;;;;;;6.15;43.05;101608.25;5047066;28;20121;-66
2023/03/28 11:38:40;;;;;;;3.92;0.77;;;;;;;6.09;42.47;101604.06;5014964;28;20049;-67
2023/03/28 11:41:19;;;;;;;2.65;0.90;;;;;;;6.23;42.81;101606.31;5031619;28;20108;-67
2023/03/28 11:44:18;;;;;;;1.00;0.63;;;;;;;6.68;42.42;101589.47;5007648;28;20457;-67
2023/03/28 11:46:54;;;;;;;4.90;0.73;;;;;;;6.74;41.77;101599.75;5026354;28;20061;-66
2023/03/28 11:49:32;;;;;;;4.10;0.82;;;;;;;6.61;41.72;101609.69;5047383;28;20061;-67
2023/03/28 11:52:11;;;;;;;2.20;0.75;;;;;;;6.68;41.31;101607.78;5047505;28;20064;-67
2023/03/28 11:54:48;;;;;;;0.80;0.60;;;;;;;6.93;41.11;101593.09;5010301;28;20048;-67
2023/03/28 11:57:28;;;;;;;1.80;0.63;;;;;;;7.15;40.12;101590.72;5045919;28;20594;-67